createdAt,value
2018-12-03T00:00:20.383Z,98.73
2018-12-03T00:02:49.009Z,98.50
2018-12-03T00:05:17.885Z,98.78
2018-12-03T00:07:46.133Z,97.74
2018-12-03T00:10:14.460Z,98.10
2018-12-03T00:12:42.620Z,97.98
2018-12-03T00:15:10.877Z,98.06
2018-12-03T00:17:39.141Z,97.91
2018-12-03T00:20:09.271Z,97.37
2018-12-03T00:22:37.541Z,97.30
2018-12-03T00:25:06.858Z,97.62
2018-12-03T00:27:35.064Z,97.34
2018-12-03T00:30:03.430Z,98.00
2018-12-03T00:32:32.428Z,97.04
2018-12-03T00:35:00.629Z,97.41
2018-12-03T00:37:28.976Z,97.75
2018-12-03T00:39:57.633Z,98.03
2018-12-03T00:42:25.835Z,97.56
2018-12-03T00:44:54.083Z,97.51
2018-12-03T00:47:22.394Z,97.56
2018-12-03T00:49:50.613Z,96.49
2018-12-03T00:52:18.818Z,97.72
2018-12-03T00:54:46.997Z,97.43
2018-12-03T00:57:15.270Z,97.71
2018-12-03T00:59:43.537Z,96.99
2018-12-03T01:02:29.426Z,97.71
2018-12-03T01:04:57.684Z,97.63
2018-12-03T01:07:26.103Z,97.81
2018-12-03T01:09:54.305Z,97.12
2018-12-03T01:12:22.593Z,97.26
2018-12-03T01:14:50.848Z,96.99
2018-12-03T01:17:19.126Z,97.62
2018-12-03T01:19:47.309Z,97.75
2018-12-03T01:22:15.490Z,97.23
2018-12-03T01:24:43.668Z,97.68
2018-12-03T01:27:11.882Z,97.65
2018-12-03T01:29:40.096Z,96.85
2018-12-03T01:32:08.347Z,96.76
2018-12-03T01:34:36.548Z,97.48
2018-12-03T01:37:04.770Z,97.58
2018-12-03T01:39:32.944Z,97.51
2018-12-03T01:42:01.092Z,97.08
2018-12-03T01:44:29.410Z,97.01
2018-12-03T01:46:57.656Z,96.81
2018-12-03T01:49:25.902Z,96.84
2018-12-03T01:51:54.116Z,97.31
2018-12-03T01:54:22.404Z,97.20
2018-12-03T01:56:50.641Z,97.05
2018-12-03T01:59:18.789Z,97.67
2018-12-03T02:01:47.221Z,97.37
2018-12-03T02:04:15.444Z,96.66
2018-12-03T02:06:43.816Z,96.70
2018-12-03T02:09:12.026Z,96.44
2018-12-03T02:11:40.201Z,97.34
2018-12-03T02:14:08.463Z,97.35
2018-12-03T02:16:36.633Z,97.29
2018-12-03T02:19:05.158Z,97.27
2018-12-03T02:21:33.344Z,96.44
2018-12-03T02:24:01.476Z,97.04
2018-12-03T02:26:29.628Z,96.52
2018-12-03T02:28:57.772Z,96.13
2018-12-03T02:31:26.013Z,96.09
2018-12-03T02:33:54.273Z,96.07
2018-12-03T02:36:22.482Z,96.50
2018-12-03T02:38:50.650Z,96.57
2018-12-03T02:41:18.882Z,95.85
2018-12-03T02:43:47.081Z,96.22
2018-12-03T02:46:15.280Z,96.50
2018-12-03T02:48:43.536Z,97.10
2018-12-03T02:51:11.813Z,96.75
2018-12-03T02:53:39.986Z,95.98
2018-12-03T02:56:08.209Z,95.74
2018-12-03T02:58:36.471Z,96.51
2018-12-03T03:01:04.766Z,96.11
2018-12-03T03:03:32.971Z,95.64
2018-12-03T03:06:01.187Z,96.23
2018-12-03T03:08:29.429Z,95.69
2018-12-03T03:10:57.613Z,96.09
2018-12-03T03:13:26.331Z,96.14
2018-12-03T03:15:54.518Z,96.16
2018-12-03T03:18:22.676Z,95.75
2018-12-03T03:20:50.943Z,96.06
2018-12-03T03:23:19.211Z,95.38
2018-12-03T03:25:47.479Z,96.10
2018-12-03T03:28:15.710Z,96.08
2018-12-03T03:30:43.898Z,96.24
2018-12-03T03:33:12.164Z,96.44
2018-12-03T03:35:40.452Z,95.55
2018-12-03T03:38:08.766Z,96.33
2018-12-03T03:40:37.062Z,95.70
2018-12-03T03:43:05.584Z,96.46
2018-12-03T03:45:33.811Z,95.63
2018-12-03T03:48:02.013Z,95.92
2018-12-03T03:50:30.503Z,95.12
2018-12-03T03:52:58.699Z,96.38
2018-12-03T03:55:26.899Z,95.25
2018-12-03T03:57:55.129Z,96.18
2018-12-03T04:00:23.361Z,95.71
2018-12-03T04:02:52.024Z,95.40
2018-12-03T04:05:19.789Z,94.68
2018-12-03T04:07:47.995Z,94.43
2018-12-03T04:10:16.595Z,94.83
2018-12-03T04:12:46.712Z,94.29
2018-12-03T04:15:15.910Z,94.54
2018-12-03T04:17:44.170Z,94.08
2018-12-03T04:21:19.164Z,94.04
2018-12-03T04:23:47.420Z,93.32
2018-12-03T04:26:15.608Z,92.42
2018-12-03T04:28:43.737Z,93.26
2018-12-03T04:31:11.885Z,93.06
2018-12-03T04:33:40.025Z,93.02
2018-12-03T04:36:08.180Z,93.84
2018-12-03T04:38:36.317Z,92.96
2018-12-03T04:41:04.466Z,93.89
2018-12-03T04:43:32.667Z,93.47
2018-12-03T04:46:00.854Z,92.87
2018-12-03T04:48:29.130Z,93.70
2018-12-03T04:50:57.241Z,93.11
2018-12-03T04:53:25.404Z,93.76
2018-12-03T04:55:53.720Z,92.92
2018-12-03T04:58:21.897Z,93.22
2018-12-03T05:00:50.026Z,94.04
2018-12-03T05:03:18.193Z,93.65
2018-12-03T05:05:46.466Z,93.57
2018-12-03T05:08:15.112Z,94.35
2018-12-03T05:10:43.384Z,93.58
2018-12-03T05:13:11.541Z,94.45
2018-12-03T05:15:39.713Z,93.75
2018-12-03T05:18:07.854Z,93.62
2018-12-03T05:20:36.069Z,94.17
2018-12-03T05:23:04.237Z,94.54
2018-12-03T05:25:32.667Z,94.35
2018-12-03T05:28:00.977Z,94.59
2018-12-03T05:30:29.156Z,93.46
2018-12-03T05:32:57.410Z,93.91
2018-12-03T05:35:27.234Z,94.03
2018-12-03T05:37:55.425Z,93.17
2018-12-03T05:40:26.012Z,93.83
2018-12-03T05:42:54.818Z,93.23
2018-12-03T05:45:23.119Z,93.60
2018-12-03T05:47:51.627Z,93.81
2018-12-03T05:50:19.856Z,92.71
2018-12-03T05:52:48.429Z,93.26
2018-12-03T05:55:16.677Z,92.97
2018-12-03T05:57:45.568Z,92.45
2018-12-03T06:00:17.018Z,93.15
2018-12-03T06:02:45.228Z,92.73
2018-12-03T06:05:14.143Z,93.45
2018-12-03T06:07:42.324Z,92.40
2018-12-03T06:10:11.800Z,93.38
2018-12-03T06:12:39.953Z,93.53
2018-12-03T06:15:09.905Z,93.54
2018-12-03T06:17:39.077Z,93.52
2018-12-03T06:20:09.436Z,93.04
2018-12-03T06:22:37.674Z,93.25
2018-12-03T06:25:09.013Z,92.84
2018-12-03T06:27:37.387Z,92.75
2018-12-03T06:30:09.561Z,93.76
2018-12-03T06:32:37.884Z,92.82
2018-12-03T06:35:07.786Z,93.37
2018-12-03T06:37:36.213Z,93.23
2018-12-03T06:40:08.513Z,93.14
2018-12-03T06:42:36.845Z,93.02
2018-12-03T06:45:05.498Z,92.37
2018-12-03T06:47:33.640Z,93.10
2018-12-03T06:50:01.805Z,93.05
2018-12-03T06:52:30.188Z,93.69
2018-12-03T06:54:58.688Z,92.49
2018-12-03T06:57:28.332Z,92.84
2018-12-03T06:59:57.115Z,92.13
2018-12-03T07:02:25.329Z,92.49
2018-12-03T07:04:53.660Z,92.67
2018-12-03T07:07:21.938Z,92.26
2018-12-03T07:09:50.446Z,92.18
2018-12-03T07:12:18.811Z,91.55
2018-12-03T07:14:47.009Z,92.25
2018-12-03T07:17:15.170Z,91.17
2018-12-03T07:19:43.318Z,91.76
2018-12-03T07:22:11.502Z,91.13
2018-12-03T07:24:39.656Z,91.16
2018-12-03T07:27:07.821Z,91.08
2018-12-03T07:29:36.134Z,90.18
2018-12-03T07:32:04.321Z,90.23
2018-12-03T07:34:32.516Z,90.14
2018-12-03T07:37:00.785Z,89.01
2018-12-03T07:39:29.002Z,88.62
2018-12-03T07:41:57.215Z,88.21
2018-12-03T07:44:25.487Z,88.62
2018-12-03T07:46:53.667Z,88.90
2018-12-03T07:49:21.906Z,88.85
2018-12-03T07:51:50.148Z,88.48
2018-12-03T07:54:18.343Z,88.41
2018-12-03T07:56:46.491Z,89.00
2018-12-03T07:59:14.680Z,89.08
2018-12-03T08:01:42.845Z,88.27
2018-12-03T08:04:11.062Z,89.44
2018-12-03T08:06:39.246Z,88.88
2018-12-03T08:09:09.218Z,89.25
2018-12-03T08:11:37.452Z,89.95
2018-12-03T08:14:05.996Z,89.60
2018-12-03T08:16:34.209Z,90.34
2018-12-03T08:19:02.408Z,89.55
2018-12-03T08:21:30.594Z,90.21
2018-12-03T08:24:01.477Z,90.23
2018-12-03T08:26:29.876Z,89.43
2018-12-03T08:28:58.014Z,89.32
2018-12-03T08:31:26.337Z,90.04
2018-12-03T08:33:54.570Z,89.65
2018-12-03T08:36:22.738Z,89.30
2018-12-03T08:38:50.907Z,89.07
2018-12-03T08:41:19.096Z,89.06
2018-12-03T08:43:47.248Z,88.71
2018-12-03T08:46:15.413Z,88.71
2018-12-03T08:48:43.585Z,88.76
2018-12-03T08:51:12.472Z,88.33
2018-12-03T08:53:41.144Z,88.45
2018-12-03T08:56:09.309Z,88.06
2018-12-03T08:58:37.450Z,88.07
2018-12-03T09:01:14.661Z,87.48
2018-12-03T09:03:44.264Z,87.77
2018-12-03T09:06:13.490Z,87.41
2018-12-03T09:08:46.370Z,86.92
2018-12-03T09:11:14.577Z,87.79
2018-12-03T09:13:42.749Z,87.64
2018-12-03T09:16:10.920Z,87.03
2018-12-03T09:18:40.584Z,86.96
2018-12-03T09:21:14.116Z,86.74
2018-12-03T09:23:43.625Z,86.77
2018-12-03T09:26:12.413Z,85.87
2018-12-03T09:28:40.548Z,85.73
2018-12-03T09:31:08.717Z,86.69
2018-12-03T09:33:36.889Z,85.91
2018-12-03T09:36:05.817Z,86.32
2018-12-03T09:38:43.977Z,87.48
2018-12-03T09:41:12.192Z,85.49
2018-12-03T09:43:42.865Z,87.84
2018-12-03T09:46:11.081Z,88.03
2018-12-03T09:48:39.330Z,88.17
2018-12-03T09:51:07.475Z,88.37
2018-12-03T09:53:35.665Z,88.08
2018-12-03T09:56:03.872Z,87.46
2018-12-03T09:58:32.022Z,87.76
2018-12-03T10:01:00.173Z,87.31
2018-12-03T10:03:33.736Z,86.90
2018-12-03T10:06:08.305Z,87.03
2018-12-03T10:08:36.650Z,86.31
2018-12-03T10:11:04.845Z,86.88
2018-12-03T10:13:33.110Z,87.25
2018-12-03T10:16:01.310Z,86.37
2018-12-03T10:18:29.519Z,87.30
2018-12-03T10:21:00.203Z,86.70
2018-12-03T10:23:28.454Z,86.62
2018-12-03T10:25:58.042Z,87.12
2018-12-03T10:28:26.938Z,87.20
2018-12-03T10:30:56.470Z,86.96
2018-12-03T10:33:27.886Z,86.37
2018-12-03T10:35:56.122Z,86.77
2018-12-03T10:38:27.146Z,87.27
2018-12-03T10:40:59.587Z,86.93
2018-12-03T10:43:27.736Z,86.57
2018-12-03T10:45:55.990Z,86.19
2018-12-03T10:48:24.162Z,85.65
2018-12-03T10:50:52.356Z,86.58
2018-12-03T10:53:24.769Z,85.39
2018-12-03T10:55:52.977Z,85.35
2018-12-03T10:58:21.175Z,85.49
2018-12-03T11:00:54.677Z,86.19
2018-12-03T11:03:28.190Z,86.15
2018-12-03T11:06:06.914Z,85.56
2018-12-03T11:08:35.076Z,85.31
2018-12-03T11:11:03.228Z,85.07
2018-12-03T11:13:31.408Z,85.62
2018-12-03T11:15:59.714Z,84.48
2018-12-03T11:18:28.715Z,84.99
2018-12-03T11:21:03.562Z,85.64
2018-12-03T11:23:34.509Z,85.93
2018-12-03T11:26:00.165Z,85.95
2018-12-03T11:28:36.741Z,84.29
2018-12-03T11:31:06.469Z,83.09
2018-12-03T11:33:34.612Z,82.01
2018-12-03T11:36:02.816Z,82.55
2018-12-03T15:11:00.074Z,82.37
2018-12-03T15:13:28.229Z,82.05
2018-12-03T15:15:56.453Z,83.12
2018-12-03T15:18:24.696Z,82.94
2018-12-03T15:20:54.673Z,83.53
2018-12-03T15:23:22.826Z,83.82
2018-12-03T15:25:50.977Z,84.08
2018-12-03T15:28:19.169Z,83.62
2018-12-03T15:30:47.312Z,83.43
2018-12-03T15:33:15.550Z,84.20
2018-12-03T15:35:43.869Z,84.36
2018-12-03T15:38:12.117Z,84.08
2018-12-03T15:40:40.377Z,84.78
2018-12-03T15:43:08.627Z,85.73
2018-12-03T15:45:36.974Z,86.71
2018-12-03T15:48:05.340Z,87.20
2018-12-03T15:50:33.584Z,88.14
2018-12-03T15:53:01.895Z,87.81
2018-12-03T15:55:30.198Z,88.90
2018-12-03T15:57:58.537Z,88.02
2018-12-03T16:00:26.861Z,89.15
2018-12-03T16:02:55.111Z,88.82
2018-12-03T16:05:25.289Z,88.02
2018-12-03T16:07:53.527Z,88.31
2018-12-03T16:10:21.713Z,88.37
2018-12-03T16:12:51.033Z,88.92
2018-12-03T16:15:19.712Z,88.34
2018-12-03T16:17:47.957Z,88.93
2018-12-03T16:20:16.334Z,89.06
2018-12-03T16:22:44.537Z,89.21
2018-12-03T16:25:15.814Z,90.46
2018-12-03T16:27:44.356Z,89.77
2018-12-03T16:30:17.206Z,89.90
2018-12-03T16:32:45.434Z,90.34
2018-12-03T16:35:13.638Z,90.29
2018-12-03T16:37:41.829Z,89.92
2018-12-03T16:40:10.444Z,89.96
2018-12-03T16:42:38.635Z,89.75
2018-12-03T16:45:08.784Z,88.75
2018-12-03T16:47:37.397Z,88.20
2018-12-03T16:50:07.861Z,87.83
2018-12-03T16:52:36.095Z,88.41
2018-12-03T16:55:04.575Z,87.00
2018-12-03T16:57:32.839Z,87.17
2018-12-03T17:00:01.077Z,87.07
2018-12-03T17:02:29.364Z,86.96
2018-12-03T17:04:59.259Z,86.59
2018-12-03T17:07:27.563Z,87.24
2018-12-03T17:09:57.143Z,87.16
2018-12-03T17:12:28.334Z,86.24
2018-12-03T17:14:56.634Z,86.88
2018-12-03T17:17:24.895Z,86.06
2018-12-03T17:19:54.122Z,87.03
2018-12-03T17:22:30.915Z,86.39
2018-12-03T17:24:59.204Z,86.24
2018-12-03T17:27:27.535Z,87.02
2018-12-03T17:29:55.805Z,85.29
2018-12-03T17:32:23.997Z,85.56
2018-12-03T17:34:53.370Z,86.32
2018-12-03T17:37:21.613Z,86.58
2018-12-03T17:39:49.818Z,85.65
2018-12-03T17:42:18.043Z,86.04
2018-12-03T17:44:46.217Z,86.05
2018-12-03T17:47:14.392Z,85.45
2018-12-03T17:49:42.770Z,85.36
2018-12-03T17:52:11.525Z,85.06
2018-12-03T17:54:39.699Z,85.03
2018-12-03T17:57:07.866Z,84.74
2018-12-03T17:59:36.101Z,84.90
2018-12-03T18:02:04.329Z,84.78
2018-12-03T18:04:32.556Z,84.32
2018-12-03T18:07:00.726Z,83.70
2018-12-03T18:09:28.848Z,83.76
2018-12-03T18:11:57.179Z,83.69
2018-12-03T18:14:25.340Z,83.88
2018-12-03T18:16:53.521Z,83.69
2018-12-03T18:19:21.705Z,84.06
2018-12-03T18:21:49.864Z,83.51
2018-12-03T18:24:18.158Z,83.26
2018-12-03T18:26:46.440Z,83.13
2018-12-03T18:29:14.695Z,83.25
2018-12-03T18:31:42.937Z,84.02
2018-12-03T18:34:11.132Z,84.76
2018-12-03T18:36:39.418Z,85.44
2018-12-03T18:39:08.937Z,85.61
2018-12-03T18:41:38.008Z,85.11
2018-12-03T18:44:06.330Z,84.54
2018-12-03T18:46:34.582Z,84.42
2018-12-03T18:49:08.280Z,84.78
2018-12-03T18:51:36.422Z,83.95
2018-12-03T18:54:04.825Z,84.32
2018-12-03T18:56:32.999Z,83.82
2018-12-03T18:59:04.152Z,84.16
2018-12-03T19:01:32.407Z,83.45
2018-12-03T19:04:00.698Z,83.28
2018-12-03T19:06:29.464Z,83.82
2018-12-03T19:08:57.768Z,83.73
2018-12-03T19:11:26.028Z,82.91
2018-12-03T19:13:55.180Z,83.07
2018-12-03T19:16:24.228Z,82.72
2018-12-03T19:18:52.432Z,83.34
2018-12-03T19:21:20.592Z,82.75
2018-12-03T19:23:48.753Z,82.45
2018-12-03T19:26:16.912Z,83.10
2018-12-03T19:28:45.201Z,82.01
2018-12-03T19:31:13.369Z,82.51
2018-12-03T19:33:41.698Z,82.63
2018-12-03T19:36:09.922Z,82.19
2018-12-03T19:38:38.088Z,82.60
2018-12-03T19:41:06.598Z,82.19
2018-12-03T19:43:34.761Z,82.72
2018-12-03T19:46:02.970Z,81.77
2018-12-03T19:48:31.201Z,82.43
2018-12-03T19:50:59.584Z,81.71
2018-12-03T19:53:27.897Z,82.19
2018-12-03T19:55:56.090Z,81.41
2018-12-03T19:58:42.645Z,82.36
2018-12-03T20:01:10.922Z,81.87
2018-12-03T20:03:39.282Z,81.90
2018-12-03T20:06:07.434Z,82.45
2018-12-03T20:08:35.861Z,82.36
2018-12-03T20:11:04.349Z,81.65
2018-12-03T20:13:32.509Z,81.84
2018-12-03T20:16:00.673Z,81.51
2018-12-03T20:18:28.921Z,81.30
2018-12-03T20:21:03.317Z,82.22
2018-12-03T20:23:37.480Z,80.81
2018-12-03T20:26:10.655Z,82.23
2018-12-03T20:28:49.391Z,81.73
2018-12-03T20:31:45.275Z,81.37
2018-12-03T20:34:25.674Z,81.87
2018-12-03T20:37:10.213Z,83.43
2018-12-03T20:40:03.457Z,85.56
2018-12-03T20:42:34.789Z,87.01
2018-12-03T20:46:09.761Z,87.55
2018-12-03T20:49:19.815Z,88.15
2018-12-03T20:51:48.830Z,89.19
2018-12-03T20:54:16.993Z,88.06
2018-12-03T20:56:45.164Z,88.82
2018-12-03T20:59:13.448Z,90.08
